Norwegian Jewel — C6TX6 — position and weather

sailwx.info

Track history (hours):
 
Tides and Currents Weather Stations Pressure Air Temp Water Temp Dewpoint Dewpoint Depression Visibility Wind Speed Wind Dir Waves Ship Positions

Norwegian Jewel

Last reported at 2018-Feb-22 11:03 UTC. Time now 2018-Feb-26 01:19 UTC.
Position S 27°44' E 153°51'.

Type: Ship. MMSI: 311827000.

Date/timePositionNaut miles runAvg speedWind from/ knotsBaromVisibWave heightAir tempDewpointWater temp
2018-Feb-22 11:03S 27°44' E 153°51'111.7
2018-Feb-22 10:56S 27°45' E 153°51'511.5
2018-Feb-22 10:30S 27°50' E 153°52'611.8
2018-Feb-22 10:00S 27°56' E 153°53'611.7
2018-Feb-22 09:30S 28°02' E 153°53'612.7
2018-Feb-22 08:59S 28°09' E 153°54'612.7
2018-Feb-22 08:29S 28°15' E 153°55'712.5
2018-Feb-22 07:58S 28°21' E 153°56'612.4
2018-Feb-22 07:30S 28°27' E 153°56'25412.3
2018-Feb-21 10:50S 32°34' E 152°49'412.3
2018-Feb-21 10:31S 32°37' E 152°45'612.4
2018-Feb-21 10:01S 32°41' E 152°40'612.9
2018-Feb-21 09:31S 32°45' E 152°34'713.1
2018-Feb-21 09:00S 32°50' E 152°28'714.2
2018-Feb-21 08:30S 32°53' E 152°21'714.5
2018-Feb-21 08:00S 32°53' E 152°12'713.8
2018-Feb-21 07:30S 32°54' E 152°04'612.0
2018-Feb-21 07:00S 32°54' E 151°57'611.8
2018-Feb-21 06:30S 32°54' E 151°50'3 5.7
2018-Feb-21 06:00S 32°55' E 151°47'0 0.0
2018-Feb-21 05:30S 32°55' E 151°47'0 0.0
2018-Feb-21 05:00S 32°55' E 151°47'0 0.0
2018-Feb-21 04:29S 32°55' E 151°47'0 0.0
2018-Feb-21 03:59S 32°55' E 151°47'0 0.0
2018-Feb-21 03:29S 32°55' E 151°47'0 0.0
2018-Feb-21 02:59S 32°55' E 151°47'0 0.0
2018-Feb-21 02:29S 32°55' E 151°47'0 0.0
2018-Feb-21 01:58S 32°55' E 151°47'0 0.0
2018-Feb-21 01:28S 32°55' E 151°47'0 0.0
2018-Feb-21 00:58S 32°55' E 151°47'0 0.0
2018-Feb-21 00:28S 32°55' E 151°47'0 0.0
2018-Feb-21 00:00S 32°55' E 151°47'0 0.0
2018-Feb-20 23:30S 32°55' E 151°47'0 0.0
2018-Feb-20 23:00S 32°55' E 151°47'0 0.0
2018-Feb-20 22:30S 32°55' E 151°47'0 0.0
2018-Feb-20 22:00S 32°55' E 151°47'0 0.0
2018-Feb-20 21:29S 32°55' E 151°47'0 0.0
2018-Feb-20 20:59S 32°55' E 151°47'0 0.0
2018-Feb-20 20:30S 32°55' E 151°47'1 2.3
2018-Feb-20 19:56S 32°55' E 151°48'4 9.8
2018-Feb-20 19:31S 32°57' E 151°52'4 7.2
2018-Feb-20 19:00S 33°00' E 151°53'3 6.8
2018-Feb-20 18:30S 33°03' E 151°54'3 6.6
2018-Feb-20 18:00S 33°05' E 151°58'3 6.3
2018-Feb-20 17:30S 33°08' E 151°60'3 6.6
2018-Feb-20 17:00S 33°11' E 151°58'4 6.4
2018-Feb-20 16:27S 33°14' E 151°56'39 5.6
2018-Feb-20 09:26S 33°50' E 151°36'818.8
2018-Feb-20 09:00S 33°50' E 151°27'5 0.3
2018-Feb-19 17:39S 33°51' E 151°21'29212.6
2018-Feb-18 18:27S 38°21' E 149°02'3220.2
2018-Feb-18 16:53S 38°39' E 148°29'1119.7
2018-Feb-18 16:18S 38°46' E 148°17'720.4
2018-Feb-18 15:56S 38°49' E 148°08'8719.1
2018-Feb-18 11:21S 39°49' E 146°46'720.5
2018-Feb-18 11:00S 39°56' E 146°42'1020.6
2018-Feb-18 10:31S 40°05' E 146°36'1020.8
2018-Feb-18 10:00S 40°14' E 146°30'1020.8
2018-Feb-18 09:30S 40°23' E 146°24'1020.8
2018-Feb-18 09:00S 40°33' E 146°17'1020.9
2018-Feb-18 08:30S 40°42' E 146°11'1020.9
2018-Feb-18 08:00S 40°51' E 146°05'1020.3
2018-Feb-18 07:30S 41°01' E 145°59'4 8.1
2018-Feb-18 07:00S 41°03' E 145°55'0 0.1
2018-Feb-18 00:54S 41°03' E 145°55'1 1.9
2018-Feb-18 00:30S 41°03' E 145°56'611.4
2018-Feb-18 00:00S 40°59' E 146°01'714.0
2018-Feb-17 23:30S 40°57' E 146°10'1019.5
2018-Feb-17 23:00S 40°53' E 146°21'1019.4
2018-Feb-17 22:30S 40°49' E 146°33'1020.1
2018-Feb-17 22:00S 40°45' E 146°45'1121.9
2018-Feb-17 21:30S 40°40' E 146°58'1121.9
2018-Feb-17 21:00S 40°36' E 147°12'1121.9
2018-Feb-17 20:30S 40°35' E 147°26'1019.8
2018-Feb-17 20:00S 40°34' E 147°39'1019.0
2018-Feb-17 19:30S 40°36' E 147°51'918.0
2018-Feb-17 19:00S 40°38' E 148°03'917.0
2018-Feb-17 18:29S 40°41' E 148°14'1 0.0
2018-Feb-16 10:45S 40°41' E 148°14'617.4
2018-Feb-16 10:25S 40°40' E 148°06'717.4
2018-Feb-16 09:59S 40°37' E 147°57'918.6
2018-Feb-16 09:30S 40°34' E 147°46'1019.2
2018-Feb-16 09:00S 40°31' E 147°34'1019.5
2018-Feb-16 08:30S 40°27' E 147°23'1019.8
2018-Feb-16 08:00S 40°23' E 147°11'1019.9
2018-Feb-16 07:30S 40°19' E 146°59'1019.9
2018-Feb-16 07:01S 40°15' E 146°47'1020.0
2018-Feb-16 06:31S 40°11' E 146°35'13721.0
2018-Feb-16 00:00S 39°12' E 143°54'37310.6 260 / 351013.010.8 15.0 20.0
2018-Feb-14 12:40S 34°59' E 138°09'1 7.2
2018-Feb-14 12:30S 34°58' E 138°09'4 7.0
2018-Feb-14 11:59S 34°55' E 138°11'10 0.6
2018-Feb-13 20:56S 34°49' E 138°20'0 0.7
2018-Feb-13 20:30S 34°49' E 138°21'4 7.1
2018-Feb-13 20:00S 34°51' E 138°17'  
Track history (hours):
 
Tides and Currents Weather Stations Pressure Air Temp Water Temp Dewpoint Dewpoint Depression Visibility Wind Speed Wind Dir Waves Ship Positions

Norwegian Jewel

Last reported at 2018-Feb-22 11:03 UTC. Time now 2018-Feb-26 01:19 UTC.
Position S 27°44' E 153°51'.

Type: Ship. MMSI: 311827000.

Date/timePositionNaut miles runAvg speedWind from/ knotsBaromVisibWave heightAir tempDewpointWater temp
2018-Feb-22 11:03S 27°44' E 153°51'111.7
2018-Feb-22 10:56S 27°45' E 153°51'511.5
2018-Feb-22 10:30S 27°50' E 153°52'611.8
2018-Feb-22 10:00S 27°56' E 153°53'611.7
2018-Feb-22 09:30S 28°02' E 153°53'612.7
2018-Feb-22 08:59S 28°09' E 153°54'612.7
2018-Feb-22 08:29S 28°15' E 153°55'712.5
2018-Feb-22 07:58S 28°21' E 153°56'612.4
2018-Feb-22 07:30S 28°27' E 153°56'25412.3
2018-Feb-21 10:50S 32°34' E 152°49'412.3
2018-Feb-21 10:31S 32°37' E 152°45'612.4
2018-Feb-21 10:01S 32°41' E 152°40'612.9
2018-Feb-21 09:31S 32°45' E 152°34'713.1
2018-Feb-21 09:00S 32°50' E 152°28'714.2
2018-Feb-21 08:30S 32°53' E 152°21'714.5
2018-Feb-21 08:00S 32°53' E 152°12'713.8
2018-Feb-21 07:30S 32°54' E 152°04'612.0
2018-Feb-21 07:00S 32°54' E 151°57'611.8
2018-Feb-21 06:30S 32°54' E 151°50'3 5.7
2018-Feb-21 06:00S 32°55' E 151°47'0 0.0
2018-Feb-21 05:30S 32°55' E 151°47'0 0.0
2018-Feb-21 05:00S 32°55' E 151°47'0 0.0
2018-Feb-21 04:29S 32°55' E 151°47'0 0.0
2018-Feb-21 03:59S 32°55' E 151°47'0 0.0
2018-Feb-21 03:29S 32°55' E 151°47'0 0.0
2018-Feb-21 02:59S 32°55' E 151°47'0 0.0
2018-Feb-21 02:29S 32°55' E 151°47'0 0.0
2018-Feb-21 01:58S 32°55' E 151°47'0 0.0
2018-Feb-21 01:28S 32°55' E 151°47'0 0.0
2018-Feb-21 00:58S 32°55' E 151°47'0 0.0
2018-Feb-21 00:28S 32°55' E 151°47'0 0.0
2018-Feb-21 00:00S 32°55' E 151°47'0 0.0
2018-Feb-20 23:30S 32°55' E 151°47'0 0.0
2018-Feb-20 23:00S 32°55' E 151°47'0 0.0
2018-Feb-20 22:30S 32°55' E 151°47'0 0.0
2018-Feb-20 22:00S 32°55' E 151°47'0 0.0
2018-Feb-20 21:29S 32°55' E 151°47'0 0.0
2018-Feb-20 20:59S 32°55' E 151°47'0 0.0
2018-Feb-20 20:30S 32°55' E 151°47'1 2.3
2018-Feb-20 19:56S 32°55' E 151°48'4 9.8
2018-Feb-20 19:31S 32°57' E 151°52'4 7.2
2018-Feb-20 19:00S 33°00' E 151°53'3 6.8
2018-Feb-20 18:30S 33°03' E 151°54'3 6.6
2018-Feb-20 18:00S 33°05' E 151°58'3 6.3
2018-Feb-20 17:30S 33°08' E 151°60'3 6.6
2018-Feb-20 17:00S 33°11' E 151°58'4 6.4
2018-Feb-20 16:27S 33°14' E 151°56'39 5.6
2018-Feb-20 09:26S 33°50' E 151°36'818.8
2018-Feb-20 09:00S 33°50' E 151°27'5 0.3
2018-Feb-19 17:39S 33°51' E 151°21'29212.6
2018-Feb-18 18:27S 38°21' E 149°02'3220.2
2018-Feb-18 16:53S 38°39' E 148°29'1119.7
2018-Feb-18 16:18S 38°46' E 148°17'720.4
2018-Feb-18 15:56S 38°49' E 148°08'8719.1
2018-Feb-18 11:21S 39°49' E 146°46'720.5
2018-Feb-18 11:00S 39°56' E 146°42'1020.6
2018-Feb-18 10:31S 40°05' E 146°36'1020.8
2018-Feb-18 10:00S 40°14' E 146°30'1020.8
2018-Feb-18 09:30S 40°23' E 146°24'1020.8
2018-Feb-18 09:00S 40°33' E 146°17'1020.9
2018-Feb-18 08:30S 40°42' E 146°11'1020.9
2018-Feb-18 08:00S 40°51' E 146°05'1020.3
2018-Feb-18 07:30S 41°01' E 145°59'4 8.1
2018-Feb-18 07:00S 41°03' E 145°55'0 0.1
2018-Feb-18 00:54S 41°03' E 145°55'1 1.9
2018-Feb-18 00:30S 41°03' E 145°56'611.4
2018-Feb-18 00:00S 40°59' E 146°01'714.0
2018-Feb-17 23:30S 40°57' E 146°10'1019.5
2018-Feb-17 23:00S 40°53' E 146°21'1019.4
2018-Feb-17 22:30S 40°49' E 146°33'1020.1
2018-Feb-17 22:00S 40°45' E 146°45'1121.9
2018-Feb-17 21:30S 40°40' E 146°58'1121.9
2018-Feb-17 21:00S 40°36' E 147°12'1121.9
2018-Feb-17 20:30S 40°35' E 147°26'1019.8
2018-Feb-17 20:00S 40°34' E 147°39'1019.0
2018-Feb-17 19:30S 40°36' E 147°51'918.0
2018-Feb-17 19:00S 40°38' E 148°03'917.0
2018-Feb-17 18:29S 40°41' E 148°14'1 0.0
2018-Feb-16 10:45S 40°41' E 148°14'617.4
2018-Feb-16 10:25S 40°40' E 148°06'717.4
2018-Feb-16 09:59S 40°37' E 147°57'918.6
2018-Feb-16 09:30S 40°34' E 147°46'1019.2
2018-Feb-16 09:00S 40°31' E 147°34'1019.5
2018-Feb-16 08:30S 40°27' E 147°23'1019.8
2018-Feb-16 08:00S 40°23' E 147°11'1019.9
2018-Feb-16 07:30S 40°19' E 146°59'1019.9
2018-Feb-16 07:01S 40°15' E 146°47'1020.0
2018-Feb-16 06:31S 40°11' E 146°35'13721.0
2018-Feb-16 00:00S 39°12' E 143°54'37310.6 260 / 351013.010.8 15.0 20.0
2018-Feb-14 12:40S 34°59' E 138°09'1 7.2
2018-Feb-14 12:30S 34°58' E 138°09'4 7.0
2018-Feb-14 11:59S 34°55' E 138°11'10 0.6
2018-Feb-13 20:56S 34°49' E 138°20'0 0.7
2018-Feb-13 20:30S 34°49' E 138°21'4 7.1
2018-Feb-13 20:00S 34°51' E 138°17'  

Dump ship's entire track history